Weather at Auburn Municipal Airport

Public forecast

Using degrees Fahrenheit for public forecast. Weather courtesy of forecast.io.

Current aviation weather report (METAR) for Auburn Municipal Airport

Retrieved 2021/09/23 13:35 UTC (19 minutes ago):

KAUN 231335Z AUTO 00000KT 10SM CLR 18/05 A2997 RMK A01

Closest aviation forecast (TAF) to Auburn Municipal Airport

Closest forecast is Beale Air Force Base, 19.8 nm (36.7 km) WNW. Retrieved 2021/09/23 11:09 UTC (3 hours ago):

TAF TAF KBAB 231100Z 2311/2417 32006KT 9999 SKC QNH2992INS BECMG 2316/2317 32010G15KT 9999 SKC QNH2978INS BECMG 2401/2402 34006KT 9999 SKC QNH2978INS BECMG 2410/2411 VRB06KT 9999 SKC QNH2981INS TX36/2323Z TN13/2314Z